Time;durP1;ratioP1;P1;durP2;ratioP2;P2;SDS_P1;SDS_P2;PMS_P1;PMS_P2;Temp;Humidity;BMP_temperature;BMP_pressure;BME280_temperature;BME280_humidity;BME280_pressure;Samples;Min_cycle;Max_cycle;Signal;HPM_P1;HPM_P2
2022/03/07 00:02:13;;;;;;;11.07;7.90;;;3.50;92.00;;;;;;5017586;28;20705;-38
2022/03/07 00:04:43;;;;;;;12.97;8.60;;;3.40;91.90;;;;;;4995381;28;20586;-38
2022/03/07 00:07:12;;;;;;;10.37;8.67;;;3.50;92.00;;;;;;4995913;28;20316;-38
2022/03/07 00:09:42;;;;;;;11.53;8.23;;;3.40;91.90;;;;;;5024044;28;20217;-38
2022/03/07 00:12:12;;;;;;;9.67;7.50;;;3.40;91.90;;;;;;5015552;28;20221;-38
2022/03/07 00:14:41;;;;;;;12.23;8.83;;;3.40;91.90;;;;;;5014395;28;20201;-30
2022/03/07 00:17:09;;;;;;;11.87;8.43;;;3.40;91.90;;;;;;5024009;28;20197;-30
2022/03/07 00:19:41;;;;;;;13.93;8.50;;;3.40;91.90;;;;;;5013574;28;20213;-29
2022/03/07 00:22:08;;;;;;;12.47;7.73;;;3.40;91.90;;;;;;5016186;28;20207;-29
2022/03/07 00:24:37;;;;;;;10.70;8.33;;;3.30;91.80;;;;;;5018537;28;20212;-30
2022/03/07 00:27:04;;;;;;;10.73;8.27;;;3.30;91.80;;;;;;5024208;28;20209;-30
2022/03/07 00:29:32;;;;;;;11.77;8.03;;;3.30;91.80;;;;;;5017525;28;20233;-30
2022/03/07 00:32:01;;;;;;;12.97;8.57;;;3.30;91.90;;;;;;5010548;28;20221;-38
2022/03/07 00:34:31;;;;;;;12.33;9.83;;;3.20;91.90;;;;;;5022351;28;20237;-38
2022/03/07 00:36:58;;;;;;;12.53;7.90;;;3.20;91.90;;;;;;5026593;28;20244;-38
2022/03/07 00:39:25;;;;;;;11.33;7.83;;;3.20;91.90;;;;;;5027327;28;20200;-39
2022/03/07 00:41:55;;;;;;;12.30;9.03;;;3.20;91.90;;;;;;5016091;28;20221;-39
2022/03/07 00:44:27;;;;;;;10.60;8.23;;;3.20;91.90;;;;;;5011609;28;20215;-38
2022/03/07 00:46:54;;;;;;;11.17;8.90;;;3.20;91.90;;;;;;5012717;28;20205;-38
2022/03/07 00:49:27;;;;;;;11.03;8.03;;;3.10;91.90;;;;;;5008878;28;20220;-38
2022/03/07 00:51:55;;;;;;;12.37;8.80;;;3.10;91.90;;;;;;5015745;28;20260;-30
2022/03/07 00:54:25;;;;;;;11.27;8.67;;;3.10;91.90;;;;;;5022739;28;20215;-30
2022/03/07 00:56:52;;;;;;;13.47;9.10;;;3.10;91.90;;;;;;5013339;28;20674;-30
2022/03/07 00:59:19;;;;;;;13.27;8.93;;;3.00;91.90;;;;;;5022981;28;20249;-30
2022/03/07 01:01:46;;;;;;;12.57;9.00;;;3.00;91.90;;;;;;5016657;28;20201;-30
2022/03/07 01:04:14;;;;;;;10.73;8.67;;;3.00;92.00;;;;;;5016301;28;20201;-31
2022/03/07 01:06:42;;;;;;;13.23;9.07;;;2.90;91.90;;;;;;5014193;28;20977;-31
2022/03/07 01:09:15;;;;;;;11.93;8.63;;;2.90;91.80;;;;;;5014193;28;20308;-31
2022/03/07 01:12:02;;;;;;;13.23;9.20;;;2.90;91.90;;;;;;5014972;28;20213;-31
2022/03/07 01:14:29;;;;;;;11.47;8.37;;;2.90;91.90;;;;;;5016226;28;20627;-31
2022/03/07 01:16:56;;;;;;;12.03;8.80;;;2.80;91.80;;;;;;5016213;28;20687;-30
2022/03/07 01:19:26;;;;;;;10.20;8.23;;;2.80;91.90;;;;;;5008801;28;20297;-30
2022/03/07 01:21:58;;;;;;;10.57;8.20;;;2.80;91.90;;;;;;5008912;28;20237;-30
2022/03/07 01:24:25;;;;;;;12.23;8.43;;;2.80;91.80;;;;;;5005691;28;20583;-31
2022/03/07 01:26:52;;;;;;;15.23;8.87;;;2.80;91.90;;;;;;5011128;28;20239;-30
2022/03/07 01:29:22;;;;;;;12.97;8.80;;;2.80;92.10;;;;;;5019476;28;20209;-30
2022/03/07 01:31:49;;;;;;;12.20;8.40;;;2.70;91.90;;;;;;4990769;28;20248;-31
2022/03/07 01:34:19;;;;;;;13.37;8.87;;;2.70;91.90;;;;;;5009517;28;20210;-38
2022/03/07 01:36:49;;;;;;;12.63;8.30;;;2.70;91.90;;;;;;5019270;28;20322;-39
2022/03/07 01:39:16;;;;;;;11.27;8.40;;;2.70;91.90;;;;;;5010503;28;20260;-39
2022/03/07 01:41:46;;;;;;;12.27;8.67;;;2.70;91.90;;;;;;5018085;28;20280;-38
2022/03/07 01:44:21;;;;;;;13.07;9.13;;;2.70;92.00;;;;;;5015861;28;20205;-38
2022/03/07 01:46:51;;;;;;;10.93;8.47;;;2.70;92.00;;;;;;5016132;28;20204;-39
2022/03/07 01:49:19;;;;;;;12.50;8.70;;;2.60;91.90;;;;;;5024806;28;20204;-39
2022/03/07 01:51:51;;;;;;;14.13;9.33;;;2.60;91.90;;;;;;5024233;28;20217;-38
2022/03/07 01:54:24;;;;;;;11.30;8.60;;;2.60;92.00;;;;;;5018483;28;20653;-39
2022/03/07 01:56:53;;;;;;;11.70;8.87;;;2.60;91.90;;;;;;5026514;28;20205;-38
2022/03/07 01:59:27;;;;;;;14.17;9.00;;;2.60;91.90;;;;;;5028577;28;20205;-40
2022/03/07 02:01:55;;;;;;;12.77;8.77;;;2.50;92.00;;;;;;5023148;28;20667;-39
2022/03/07 02:04:22;;;;;;;14.57;8.97;;;2.50;92.20;;;;;;5018725;28;20210;-39
2022/03/07 02:06:50;;;;;;;12.57;8.73;;;2.50;92.00;;;;;;5016198;28;20578;-30
2022/03/07 02:09:19;;;;;;;14.63;9.30;;;2.50;92.00;;;;;;5023368;28;20605;-30
2022/03/07 02:11:47;;;;;;;12.37;8.97;;;2.40;91.90;;;;;;5018840;28;20201;-30
2022/03/07 02:14:15;;;;;;;12.53;9.67;;;2.40;92.00;;;;;;5024115;28;20213;-30
2022/03/07 02:16:44;;;;;;;12.87;8.90;;;2.40;92.00;;;;;;5020536;28;20209;-31
2022/03/07 02:19:16;;;;;;;12.40;9.33;;;2.30;91.80;;;;;;5020887;28;20771;-30
2022/03/07 02:21:51;;;;;;;18.03;9.13;;;2.30;91.80;;;;;;5024558;28;20240;-30
2022/03/07 02:24:19;;;;;;;12.53;8.83;;;2.30;91.80;;;;;;5013534;28;20298;-30
2022/03/07 02:27:08;;;;;;;14.10;9.43;;;2.30;91.80;;;;;;5018152;28;20259;-31
2022/03/07 02:29:38;;;;;;;12.17;9.33;;;2.30;91.90;;;;;;5022688;28;20308;-30
2022/03/07 02:32:07;;;;;;;12.73;9.43;;;2.30;92.10;;;;;;5005921;28;20315;-30
2022/03/07 02:34:40;;;;;;;12.30;9.27;;;2.30;91.90;;;;;;5016117;28;20582;-30
2022/03/07 02:37:12;;;;;;;12.60;8.90;;;2.30;91.90;;;;;;5016262;28;20205;-30
2022/03/07 02:39:45;;;;;;;11.53;8.80;;;2.30;92.00;;;;;;5025699;28;20204;-30
2022/03/07 02:42:35;;;;;;;16.47;10.00;;;2.30;91.80;;;;;;5027182;28;20742;-30
2022/03/07 02:45:05;;;;;;;11.67;8.97;;;2.30;91.90;;;;;;5012044;28;20268;-30
2022/03/07 02:47:34;;;;;;;11.53;8.70;;;2.20;91.70;;;;;;5027621;28;20292;-30
2022/03/07 02:50:03;;;;;;;16.73;9.33;;;2.20;91.90;;;;;;5013966;28;20331;-30
2022/03/07 02:52:32;;;;;;;12.47;8.90;;;2.20;91.80;;;;;;5005060;28;20626;-30
2022/03/07 02:55:00;;;;;;;11.60;9.20;;;2.20;91.80;;;;;;5018569;28;20236;-30
2022/03/07 02:57:27;;;;;;;11.93;8.53;;;2.20;91.90;;;;;;5019651;28;20219;-30
2022/03/07 02:59:55;;;;;;;13.80;9.07;;;2.20;92.10;;;;;;5012619;28;20201;-31
2022/03/07 03:02:27;;;;;;;11.27;9.13;;;2.20;91.80;;;;;;5014758;28;20217;-30
2022/03/07 03:04:54;;;;;;;13.13;9.70;;;2.20;91.90;;;;;;5015727;28;20241;-30
2022/03/07 03:07:23;;;;;;;11.87;8.63;;;2.20;91.80;;;;;;5023998;28;20701;-30
2022/03/07 03:09:55;;;;;;;14.20;9.23;;;2.20;91.90;;;;;;5013906;28;20214;-30
2022/03/07 03:12:26;;;;;;;13.30;9.23;;;2.10;91.80;;;;;;5007927;28;20225;-30
2022/03/07 03:14:56;;;;;;;12.20;8.80;;;2.10;91.70;;;;;;5009949;28;20208;-30
2022/03/07 03:17:26;;;;;;;14.43;9.23;;;2.10;91.70;;;;;;5015331;28;20292;-30
2022/03/07 03:19:57;;;;;;;11.43;9.07;;;2.10;91.70;;;;;;5008488;28;20245;-30
2022/03/07 03:22:27;;;;;;;13.27;9.43;;;2.10;91.80;;;;;;5009727;28;20213;-30
2022/03/07 03:24:59;;;;;;;15.60;9.20;;;2.10;91.80;;;;;;5002794;28;20300;-30
2022/03/07 03:27:29;;;;;;;15.53;10.07;;;2.00;91.80;;;;;;4998141;28;20349;-31
2022/03/07 03:29:56;;;;;;;11.90;9.10;;;2.00;91.70;;;;;;5009489;28;20668;-30
2022/03/07 03:32:25;;;;;;;12.33;8.87;;;2.00;91.80;;;;;;5011949;28;20235;-30
2022/03/07 03:35:00;;;;;;;11.97;9.50;;;2.00;91.80;;;;;;5011698;28;20209;-30
2022/03/07 03:37:30;;;;;;;13.23;9.33;;;2.00;91.90;;;;;;5014578;28;20221;-30
2022/03/07 03:40:00;;;;;;;12.80;9.43;;;2.00;91.90;;;;;;5006159;28;20205;-30
2022/03/07 03:42:32;;;;;;;10.83;8.77;;;2.00;91.90;;;;;;5015775;28;20604;-30
2022/03/07 03:45:05;;;;;;;13.23;9.80;;;2.00;91.80;;;;;;5022154;28;20671;-30
2022/03/07 03:47:33;;;;;;;13.20;9.47;;;1.90;91.80;;;;;;5016913;28;20209;-30
2022/03/07 03:50:01;;;;;;;13.30;9.23;;;1.90;91.70;;;;;;5013531;28;20251;-30
2022/03/07 03:52:31;;;;;;;15.63;10.20;;;1.90;91.70;;;;;;5018699;28;20261;-31
2022/03/07 03:54:58;;;;;;;12.00;9.37;;;1.90;91.70;;;;;;5019250;28;20208;-30
2022/03/07 03:57:25;;;;;;;13.10;9.20;;;1.90;91.70;;;;;;5013149;28;20210;-38
2022/03/07 03:59:58;;;;;;;12.23;9.43;;;1.90;91.70;;;;;;5022532;28;20236;-38
2022/03/07 04:02:30;;;;;;;15.27;10.00;;;1.90;91.70;;;;;;5012941;28;20244;-38
2022/03/07 04:04:58;;;;;;;13.87;9.17;;;1.90;91.70;;;;;;5018603;28;20213;-38
2022/03/07 04:07:31;;;;;;;13.13;9.73;;;1.90;91.70;;;;;;5014926;28;20209;-39
2022/03/07 04:09:58;;;;;;;15.57;10.30;;;1.90;91.80;;;;;;5012810;28;20220;-38
2022/03/07 04:12:28;;;;;;;13.17;9.87;;;1.80;91.70;;;;;;5007667;28;20232;-38
2022/03/07 04:14:59;;;;;;;14.33;8.93;;;1.80;91.80;;;;;;5010925;28;20197;-38
2022/03/07 04:17:27;;;;;;;12.93;9.73;;;1.80;91.80;;;;;;5016680;28;20205;-38
2022/03/07 04:19:54;;;;;;;14.93;10.03;;;1.80;91.80;;;;;;5000271;28;20593;-38
2022/03/07 04:22:24;;;;;;;11.73;9.27;;;1.80;91.80;;;;;;5016957;28;20614;-38
2022/03/07 04:24:51;;;;;;;12.00;9.33;;;1.80;91.90;;;;;;5019316;28;20209;-38
2022/03/07 04:27:18;;;;;;;14.10;10.43;;;1.80;91.90;;;;;;5024155;28;20230;-38
2022/03/07 04:29:45;;;;;;;11.93;9.23;;;1.70;91.90;;;;;;5019292;28;20366;-38
2022/03/07 04:32:13;;;;;;;15.57;10.27;;;1.70;91.90;;;;;;5007958;28;20735;-39
2022/03/07 04:34:41;;;;;;;13.33;9.70;;;1.70;91.80;;;;;;5002835;28;20220;-38
2022/03/07 04:37:12;;;;;;;13.33;9.43;;;1.70;91.90;;;;;;5024883;28;20204;-38
2022/03/07 04:39:43;;;;;;;12.73;9.77;;;1.70;91.90;;;;;;5016951;28;20221;-38
2022/03/07 04:42:10;;;;;;;14.20;10.13;;;1.70;91.80;;;;;;5014711;28;20194;-38
2022/03/07 04:44:40;;;;;;;13.70;10.50;;;1.60;91.80;;;;;;5003430;28;20295;-39
2022/03/07 04:47:07;;;;;;;13.90;10.40;;;1.60;91.90;;;;;;5022200;28;20215;-38
2022/03/07 04:49:37;;;;;;;15.40;10.90;;;1.60;92.10;;;;;;5021419;28;21040;-38
2022/03/07 04:52:07;;;;;;;11.70;9.93;;;1.60;92.00;;;;;;5006885;28;20205;-38
2022/03/07 04:54:35;;;;;;;14.87;10.73;;;1.60;91.90;;;;;;5005383;28;20553;-38
2022/03/07 04:57:05;;;;;;;13.10;9.63;;;1.60;92.00;;;;;;5015124;28;20604;-38
2022/03/07 04:59:32;;;;;;;14.03;10.87;;;1.50;92.00;;;;;;5003582;28;20295;-38
2022/03/07 05:02:00;;;;;;;15.47;10.67;;;1.50;92.80;;;;;;5021470;28;20201;-38
2022/03/07 05:04:27;;;;;;;15.53;10.33;;;1.50;92.50;;;;;;5024206;28;20580;-38
2022/03/07 05:06:58;;;;;;;16.50;11.17;;;1.50;92.10;;;;;;5011051;28;20217;-38
2022/03/07 05:09:28;;;;;;;16.67;11.07;;;1.50;92.10;;;;;;5023642;28;20293;-39
2022/03/07 05:11:59;;;;;;;14.27;10.70;;;1.50;92.10;;;;;;5020788;28;20320;-38
2022/03/07 05:14:29;;;;;;;16.87;11.50;;;1.60;92.10;;;;;;5020812;28;20233;-38
2022/03/07 05:16:56;;;;;;;16.60;10.93;;;1.50;92.00;;;;;;5009441;28;20275;-38
2022/03/07 05:19:23;;;;;;;15.70;11.13;;;1.60;92.00;;;;;;5023237;28;20239;-38
2022/03/07 05:21:56;;;;;;;15.60;11.33;;;1.60;92.00;;;;;;5022306;28;20200;-38
2022/03/07 05:24:23;;;;;;;19.47;11.73;;;1.50;92.00;;;;;;5013883;28;20221;-38
2022/03/07 05:26:53;;;;;;;15.80;11.50;;;1.50;92.40;;;;;;5023681;28;20224;-38
2022/03/07 05:29:25;;;;;;;15.70;11.80;;;1.50;92.20;;;;;;5001201;28;20614;-38
2022/03/07 05:31:52;;;;;;;14.90;11.47;;;1.50;92.20;;;;;;5012345;28;20687;-38
2022/03/07 05:34:22;;;;;;;16.13;11.83;;;1.40;92.30;;;;;;5014943;28;20724;-39
2022/03/07 05:36:49;;;;;;;16.80;11.80;;;1.50;92.20;;;;;;5010062;28;20217;-38
2022/03/07 05:39:16;;;;;;;16.43;12.17;;;1.40;92.30;;;;;;5021809;28;20248;-38
2022/03/07 05:41:46;;;;;;;17.77;11.77;;;1.40;92.10;;;;;;5011138;28;20198;-39
2022/03/07 05:44:13;;;;;;;17.53;11.63;;;1.40;92.30;;;;;;5012470;28;20319;-39
2022/03/07 05:46:45;;;;;;;16.17;11.63;;;1.40;92.20;;;;;;5020687;28;20996;-38
2022/03/07 05:49:15;;;;;;;20.23;11.40;;;1.40;92.10;;;;;;5011973;28;20691;-38
2022/03/07 05:51:46;;;;;;;17.13;11.93;;;1.40;92.20;;;;;;5021535;28;20213;-38
2022/03/07 05:54:14;;;;;;;18.97;12.23;;;1.40;92.10;;;;;;5025126;28;20360;-39
2022/03/07 05:56:41;;;;;;;16.80;12.77;;;1.40;92.10;;;;;;5024464;28;20232;-39
2022/03/07 05:59:08;;;;;;;15.90;11.90;;;1.40;92.50;;;;;;5009647;28;20207;-39
2022/03/07 06:01:37;;;;;;;19.37;12.00;;;1.40;92.20;;;;;;5025720;28;20296;-39
2022/03/07 06:04:05;;;;;;;18.80;13.20;;;1.40;92.20;;;;;;5020493;28;20209;-39
2022/03/07 06:06:32;;;;;;;17.40;12.67;;;1.40;92.20;;;;;;5017444;28;20320;-39
2022/03/07 06:08:59;;;;;;;15.83;11.63;;;1.40;92.10;;;;;;5020714;28;20223;-39
2022/03/07 06:11:27;;;;;;;17.50;12.50;;;1.40;92.40;;;;;;5025303;28;20307;-38
2022/03/07 06:13:54;;;;;;;21.27;12.90;;;1.40;92.20;;;;;;5015760;28;20213;-39
2022/03/07 06:16:21;;;;;;;18.37;13.10;;;1.40;92.20;;;;;;5016606;28;20548;-38
2022/03/07 06:18:48;;;;;;;17.33;12.27;;;1.40;92.40;;;;;;5007269;28;20237;-38
2022/03/07 06:21:16;;;;;;;20.87;13.13;;;1.30;92.50;;;;;;5018781;28;20255;-39
2022/03/07 06:23:51;;;;;;;21.33;13.47;;;1.30;92.30;;;;;;5020913;28;20208;-39
2022/03/07 06:26:20;;;;;;;20.57;12.90;;;1.30;92.30;;;;;;5012120;28;20252;-38
2022/03/07 06:28:50;;;;;;;17.97;13.13;;;1.40;92.40;;;;;;5026219;28;20200;-38
2022/03/07 06:31:20;;;;;;;20.70;13.33;;;1.30;92.50;;;;;;5022747;28;20290;-39
2022/03/07 06:33:47;;;;;;;18.13;12.47;;;1.30;92.30;;;;;;5005654;28;20227;-39
2022/03/07 06:36:17;;;;;;;19.80;13.60;;;1.40;92.50;;;;;;5011428;28;20212;-39
2022/03/07 06:38:44;;;;;;;16.83;12.30;;;1.40;92.30;;;;;;5025069;28;20502;-38
2022/03/07 06:41:14;;;;;;;19.87;12.83;;;1.40;92.30;;;;;;5012196;28;20218;-39
2022/03/07 06:43:41;;;;;;;20.87;13.07;;;1.40;92.30;;;;;;5009654;28;20739;-38
2022/03/07 06:46:13;;;;;;;21.43;13.80;;;1.40;92.40;;;;;;5018777;28;20753;-38
2022/03/07 06:48:40;;;;;;;19.13;13.57;;;1.40;92.50;;;;;;5010650;28;20229;-39
2022/03/07 06:51:08;;;;;;;22.47;13.20;;;1.40;92.40;;;;;;5018080;28;20299;-38
2022/03/07 06:53:37;;;;;;;19.97;13.17;;;1.40;92.30;;;;;;5017383;28;20347;-38
2022/03/07 06:56:05;;;;;;;17.00;13.30;;;1.40;92.40;;;;;;5017569;28;20246;-38
2022/03/07 06:58:32;;;;;;;27.33;13.77;;;1.40;92.20;;;;;;5015155;28;20296;-38
2022/03/07 07:00:59;;;;;;;17.53;13.70;;;1.40;92.30;;;;;;5023742;28;20297;-38
2022/03/07 07:03:27;;;;;;;18.20;12.70;;;1.40;92.30;;;;;;5010344;28;20201;-38
2022/03/07 07:05:54;;;;;;;19.07;13.03;;;1.40;92.70;;;;;;5016242;28;20220;-38
2022/03/07 07:08:24;;;;;;;22.03;12.47;;;1.40;92.40;;;;;;5012006;28;20308;-39
2022/03/07 07:10:53;;;;;;;24.50;13.27;;;1.50;92.50;;;;;;5013263;28;20271;-39
2022/03/07 07:13:23;;;;;;;17.07;13.63;;;1.50;92.40;;;;;;5006918;28;20227;-38
2022/03/07 07:15:55;;;;;;;17.43;12.87;;;1.50;92.70;;;;;;5014925;28;20224;-38
2022/03/07 07:18:24;;;;;;;17.87;13.07;;;1.50;92.50;;;;;;5018035;28;20205;-38
2022/03/07 07:20:55;;;;;;;20.27;12.03;;;1.50;92.60;;;;;;5010123;28;20660;-40
2022/03/07 07:23:25;;;;;;;20.47;13.03;;;1.50;92.50;;;;;;5017490;28;20297;-39
2022/03/07 07:25:54;;;;;;;20.77;13.23;;;1.50;92.50;;;;;;5015580;28;20209;-40
2022/03/07 07:28:24;;;;;;;19.10;13.23;;;1.60;92.50;;;;;;5020374;28;20220;-38
2022/03/07 07:30:56;;;;;;;17.53;13.07;;;1.60;92.70;;;;;;5015758;28;20598;-39
2022/03/07 07:33:26;;;;;;;21.03;13.00;;;1.60;92.60;;;;;;5022974;28;20229;-38
2022/03/07 07:35:53;;;;;;;21.43;12.70;;;1.60;92.60;;;;;;5019341;28;20207;-40
2022/03/07 07:38:24;;;;;;;16.40;12.30;;;1.70;92.60;;;;;;5024619;28;20300;-38
2022/03/07 07:40:51;;;;;;;21.07;12.53;;;1.70;92.60;;;;;;5009421;28;20224;-40
2022/03/07 07:43:18;;;;;;;19.13;12.13;;;1.80;92.60;;;;;;5003365;28;20255;-39
2022/03/07 07:45:48;;;;;;;15.10;11.30;;;1.80;92.70;;;;;;5017867;28;20201;-30
2022/03/07 07:48:16;;;;;;;18.37;11.50;;;1.80;92.70;;;;;;5010416;28;20240;-30
2022/03/07 07:50:43;;;;;;;18.87;12.30;;;1.90;92.90;;;;;;5008261;28;20252;-30
2022/03/07 07:53:15;;;;;;;16.10;11.23;;;1.90;92.90;;;;;;5007882;28;20259;-30
2022/03/07 07:55:42;;;;;;;17.63;11.20;;;1.90;92.80;;;;;;5008743;28;20682;-30
2022/03/07 07:58:09;;;;;;;15.27;10.93;;;2.00;92.80;;;;;;5014314;28;20194;-29
2022/03/07 08:00:36;;;;;;;21.63;12.87;;;2.00;92.80;;;;;;4997042;28;20223;-30
2022/03/07 08:03:03;;;;;;;19.27;11.07;;;2.00;92.90;;;;;;5019054;28;20204;-30
2022/03/07 08:05:31;;;;;;;16.60;11.07;;;2.10;93.00;;;;;;5015813;28;20208;-30
2022/03/07 08:07:58;;;;;;;20.73;11.33;;;2.10;93.00;;;;;;5019533;28;20224;-30
2022/03/07 08:10:26;;;;;;;14.20;9.73;;;2.10;92.90;;;;;;5022431;28;20202;-30
2022/03/07 08:12:55;;;;;;;14.40;9.57;;;2.10;93.10;;;;;;5006935;28;20213;-30
2022/03/07 08:15:25;;;;;;;13.47;9.77;;;2.20;92.90;;;;;;5016931;28;20225;-30
2022/03/07 08:17:52;;;;;;;17.13;9.83;;;2.20;93.00;;;;;;5022718;28;20211;-30
2022/03/07 08:20:28;;;;;;;11.40;8.73;;;2.20;93.00;;;;;;5005745;28;20216;-30
2022/03/07 08:22:56;;;;;;;13.20;9.00;;;2.30;93.00;;;;;;5026811;28;20200;-30
2022/03/07 08:25:24;;;;;;;13.57;8.70;;;2.30;93.00;;;;;;4999986;28;20243;-30
2022/03/07 08:27:52;;;;;;;16.27;8.27;;;2.40;93.00;;;;;;5013783;28;20198;-30
2022/03/07 08:30:22;;;;;;;12.73;8.57;;;2.40;93.20;;;;;;4996131;28;20239;-30
2022/03/07 08:32:52;;;;;;;9.43;7.30;;;2.50;93.00;;;;;;5014168;28;20220;-29
2022/03/07 08:35:22;;;;;;;11.07;7.07;;;2.50;93.20;;;;;;5007624;28;20229;-29
2022/03/07 08:37:54;;;;;;;11.47;7.10;;;2.50;93.00;;;;;;5007680;28;20209;-30
2022/03/07 08:40:23;;;;;;;9.53;6.30;;;2.60;93.10;;;;;;5023241;28;20200;-29
2022/03/07 08:42:54;;;;;;;14.63;6.97;;;2.70;93.20;;;;;;5019627;28;20261;-30
2022/03/07 08:45:24;;;;;;;10.83;6.53;;;2.70;93.10;;;;;;5013729;28;20204;-30
2022/03/07 08:48:14;;;;;;;11.10;6.10;;;2.70;93.10;;;;;;5030949;28;20197;-30
2022/03/07 08:50:46;;;;;;;10.33;6.40;;;2.80;93.10;;;;;;5019627;28;20206;-30
2022/03/07 08:53:19;;;;;;;9.90;6.20;;;2.90;93.20;;;;;;5011076;28;20774;-30
2022/03/07 08:55:46;;;;;;;10.33;5.57;;;2.90;93.20;;;;;;5022733;28;20208;-30
2022/03/07 08:58:36;;;;;;;10.40;5.77;;;2.90;93.10;;;;;;5019153;28;20590;-30
2022/03/07 09:01:07;;;;;;;9.63;5.53;;;3.00;93.10;;;;;;5009901;28;20216;-30
2022/03/07 09:03:35;;;;;;;6.60;5.57;;;3.00;93.20;;;;;;5010461;28;20209;-30
2022/03/07 09:06:03;;;;;;;7.80;4.83;;;3.10;93.20;;;;;;5013047;28;20248;-29
2022/03/07 09:08:32;;;;;;;8.80;5.07;;;3.20;93.50;;;;;;5013062;28;20661;-29
2022/03/07 09:11:00;;;;;;;7.90;5.63;;;3.10;93.20;;;;;;5017533;28;20235;-38
2022/03/07 09:13:32;;;;;;;10.73;4.97;;;3.20;93.20;;;;;;5029540;28;20690;-38
2022/03/07 09:15:59;;;;;;;7.10;4.57;;;3.30;93.20;;;;;;5014695;28;20198;-38
2022/03/07 09:18:28;;;;;;;7.77;4.30;;;3.30;93.20;;;;;;5024181;28;20216;-38
2022/03/07 09:20:58;;;;;;;10.50;4.47;;;3.30;93.00;;;;;;5011344;28;20297;-38
2022/03/07 09:23:33;;;;;;;8.27;4.77;;;3.30;93.00;;;;;;5013236;28;20202;-38
2022/03/07 09:26:05;;;;;;;6.63;4.47;;;3.40;93.00;;;;;;5013260;28;20307;-38
2022/03/07 09:28:33;;;;;;;6.00;4.93;;;3.40;93.00;;;;;;5016794;28;20716;-30
2022/03/07 09:31:03;;;;;;;8.53;4.37;;;3.50;93.10;;;;;;5025312;28;20198;-30
2022/03/07 09:33:30;;;;;;;10.57;4.53;;;3.50;93.10;;;;;;5029887;28;20208;-29
2022/03/07 09:35:58;;;;;;;12.10;5.23;;;3.60;93.20;;;;;;5028781;28;20220;-30
2022/03/07 09:38:29;;;;;;;5.23;4.60;;;3.60;93.20;;;;;;5018001;28;20197;-29
2022/03/07 09:40:57;;;;;;;8.60;4.93;;;3.70;93.20;;;;;;5013053;28;20202;-30
2022/03/07 09:43:26;;;;;;;9.37;5.77;;;3.70;93.10;;;;;;5028905;28;20296;-29
2022/03/07 09:45:56;;;;;;;13.27;5.30;;;3.70;93.10;;;;;;5029739;28;20307;-30
2022/03/07 09:48:26;;;;;;;10.67;5.30;;;3.80;93.20;;;;;;5026246;28;20724;-30
2022/03/07 09:50:56;;;;;;;7.23;5.30;;;3.80;93.10;;;;;;5029047;28;20235;-30
2022/03/07 09:53:29;;;;;;;7.67;5.10;;;3.90;93.00;;;;;;5027592;28;20749;-38
2022/03/07 09:55:59;;;;;;;7.83;5.10;;;3.90;93.20;;;;;;4995046;28;20308;-37
2022/03/07 09:58:26;;;;;;;6.60;5.20;;;4.00;93.30;;;;;;5023055;28;20283;-38
2022/03/07 10:01:09;;;;;;;6.00;4.90;;;4.00;93.30;;;;;;5017532;28;20216;-43
2022/03/07 10:03:39;;;;;;;5.90;4.20;;;4.00;93.10;;;;;;5009127;28;20615;-38
2022/03/07 10:06:18;;;;;;;8.50;4.50;;;4.10;93.30;;;;;;5011629;28;20208;-38
2022/03/07 10:08:59;;;;;;;5.77;3.80;;;4.10;93.30;;;;;;5013713;28;20613;-38
2022/03/07 10:11:30;;;;;;;5.90;4.20;;;4.20;93.40;;;;;;5012061;28;20200;-39
2022/03/07 10:14:05;;;;;;;6.30;4.07;;;4.20;93.40;;;;;;5010147;28;20700;-39
2022/03/07 10:16:41;;;;;;;9.03;3.87;;;4.30;93.40;;;;;;5018823;28;20733;-38
2022/03/07 10:19:15;;;;;;;13.20;4.20;;;4.40;93.40;;;;;;5010867;28;20710;-38
2022/03/07 10:21:50;;;;;;;9.80;4.73;;;4.40;93.40;;;;;;5019175;28;20595;-38
2022/03/07 10:24:32;;;;;;;7.70;4.20;;;4.40;93.30;;;;;;5015364;28;20220;-38
2022/03/07 10:27:02;;;;;;;5.20;3.93;;;4.50;93.40;;;;;;5007354;28;20288;-39
2022/03/07 10:29:30;;;;;;;8.50;4.57;;;4.50;93.40;;;;;;5012644;28;20237;-38
2022/03/07 10:32:01;;;;;;;9.97;4.53;;;4.60;93.50;;;;;;5020725;28;20219;-38
2022/03/07 10:34:36;;;;;;;7.27;4.20;;;4.60;93.40;;;;;;5018756;28;20222;-37
2022/03/07 10:37:03;;;;;;;9.03;4.10;;;4.70;93.50;;;;;;5020842;28;20305;-38
2022/03/07 10:39:30;;;;;;;16.90;4.60;;;4.70;93.50;;;;;;5013311;28;20320;-37
2022/03/07 10:41:57;;;;;;;12.60;5.13;;;4.70;93.40;;;;;;5013924;28;20207;-39
2022/03/07 10:44:34;;;;;;;12.17;4.73;;;4.80;93.40;;;;;;5013198;28;20973;-38
2022/03/07 10:47:11;;;;;;;12.77;4.17;;;4.80;93.50;;;;;;5019727;28;20211;-38
2022/03/07 10:49:56;;;;;;;5.37;3.83;;;4.90;93.50;;;;;;5020429;28;20232;-37
2022/03/07 10:52:35;;;;;;;5.27;3.90;;;4.90;93.10;;;;;;5018797;28;20240;-37
2022/03/07 10:55:06;;;;;;;8.23;4.20;;;4.90;93.50;;;;;;5013219;28;20248;-38
2022/03/07 10:57:39;;;;;;;10.43;4.37;;;4.90;93.40;;;;;;5016225;28;20291;-37
2022/03/07 11:00:12;;;;;;;7.33;3.90;;;5.00;93.50;;;;;;5006097;28;20208;-38
2022/03/07 11:02:45;;;;;;;12.70;4.87;;;5.00;93.30;;;;;;5021295;28;20311;-37
2022/03/07 11:05:20;;;;;;;8.30;4.30;;;5.00;93.20;;;;;;5019623;28;20246;-37
2022/03/07 11:07:50;;;;;;;7.60;4.50;;;5.00;93.20;;;;;;5028027;28;20581;-38
2022/03/07 11:10:18;;;;;;;8.30;3.90;;;5.00;93.30;;;;;;5014634;28;20213;-38
2022/03/07 11:12:52;;;;;;;17.43;5.03;;;5.10;93.50;;;;;;5018519;28;20213;-38
2022/03/07 11:15:23;;;;;;;6.27;4.40;;;5.20;93.50;;;;;;5023767;28;20252;-37
2022/03/07 11:17:50;;;;;;;6.23;3.93;;;5.20;93.40;;;;;;5017887;28;20229;-38
2022/03/07 11:20:20;;;;;;;7.00;4.10;;;5.20;93.40;;;;;;5024659;28;20192;-39
2022/03/07 11:22:47;;;;;;;6.40;4.57;;;5.20;93.40;;;;;;5026218;28;20220;-39
2022/03/07 11:25:16;;;;;;;7.63;4.30;;;5.30;93.50;;;;;;5024797;28;20197;-38
2022/03/07 11:27:44;;;;;;;6.00;4.53;;;5.30;93.40;;;;;;5009048;28;20213;-37
2022/03/07 11:30:23;;;;;;;6.07;4.33;;;5.30;93.20;;;;;;5012290;28;21030;-38
2022/03/07 11:32:54;;;;;;;6.43;4.50;;;5.30;93.30;;;;;;5019231;28;20315;-38
2022/03/07 11:35:32;;;;;;;5.40;4.43;;;5.40;93.50;;;;;;5014540;28;20240;-38
2022/03/07 11:38:14;;;;;;;7.17;4.80;;;5.40;93.20;;;;;;5007607;28;20582;-38
2022/03/07 11:41:03;;;;;;;6.53;4.30;;;5.40;93.10;;;;;;5022586;28;20217;-39
2022/03/07 11:43:33;;;;;;;10.93;4.73;;;5.40;93.10;;;;;;5009207;28;20213;-38
2022/03/07 11:46:02;;;;;;;6.07;4.20;;;5.50;93.40;;;;;;5027948;28;20650;-38
2022/03/07 11:48:41;;;;;;;6.87;4.50;;;5.50;93.50;;;;;;5008415;28;20201;-39
2022/03/07 11:51:17;;;;;;;12.47;4.73;;;5.60;93.50;;;;;;5022809;28;20652;-39
2022/03/07 11:53:48;;;;;;;10.53;4.50;;;5.70;93.50;;;;;;5023066;28;20322;-38
2022/03/07 11:56:21;;;;;;;10.00;4.10;;;5.70;93.50;;;;;;5025447;28;20224;-38
2022/03/07 11:58:53;;;;;;;16.40;4.37;;;5.80;93.60;;;;;;5017322;28;20201;-40
2022/03/07 12:01:27;;;;;;;9.03;4.80;;;5.80;93.50;;;;;;5014589;28;20794;-38
2022/03/07 12:04:10;;;;;;;9.43;4.70;;;5.80;93.40;;;;;;4999608;28;20206;-38
2022/03/07 12:06:45;;;;;;;22.67;5.43;;;5.90;93.50;;;;;;5007744;28;20228;-39
2022/03/07 12:09:26;;;;;;;9.47;5.30;;;5.90;93.50;;;;;;5016971;28;20514;-38
2022/03/07 12:12:08;;;;;;;12.10;5.13;;;6.00;93.60;;;;;;5011778;28;20209;-39
2022/03/07 12:14:46;;;;;;;7.00;4.50;;;6.00;93.50;;;;;;5011446;28;20703;-38
2022/03/07 12:17:19;;;;;;;8.73;4.97;;;6.10;93.80;;;;;;5007781;28;20214;-38
2022/03/07 12:20:00;;;;;;;8.90;4.87;;;6.10;93.90;;;;;;5008475;28;20208;-38
2022/03/07 12:22:30;;;;;;;14.37;5.20;;;6.20;93.70;;;;;;4991586;28;20192;-39
2022/03/07 12:25:08;;;;;;;31.40;6.63;;;6.20;93.80;;;;;;5014816;28;20312;-38
2022/03/07 12:27:39;;;;;;;20.47;6.00;;;6.30;93.90;;;;;;5013023;28;20613;-38
2022/03/07 12:30:09;;;;;;;12.20;4.77;;;6.30;94.00;;;;;;5007206;28;20239;-38
2022/03/07 12:32:38;;;;;;;6.33;4.43;;;6.40;93.80;;;;;;5015945;28;20227;-38
2022/03/07 12:35:07;;;;;;;12.07;5.00;;;6.40;93.90;;;;;;5015600;28;20240;-38
2022/03/07 12:37:37;;;;;;;6.90;4.70;;;6.50;93.90;;;;;;5009741;28;20291;-38
2022/03/07 12:40:07;;;;;;;8.87;4.50;;;6.50;93.90;;;;;;5003639;28;20217;-40
2022/03/07 12:42:42;;;;;;;7.33;5.00;;;6.50;93.90;;;;;;5016590;28;20753;-39
2022/03/07 12:45:09;;;;;;;8.33;4.97;;;6.60;93.90;;;;;;5019219;28;20196;-39
2022/03/07 12:47:38;;;;;;;8.23;5.40;;;6.60;94.00;;;;;;5016889;28;20274;-39
2022/03/07 12:50:10;;;;;;;6.93;5.07;;;6.60;93.90;;;;;;5022396;28;20223;-38
2022/03/07 12:52:45;;;;;;;11.83;5.20;;;6.60;93.50;;;;;;5011102;28;20237;-38
2022/03/07 12:55:16;;;;;;;15.47;5.63;;;6.60;93.70;;;;;;5013521;28;20221;-38
2022/03/07 12:57:44;;;;;;;9.47;4.50;;;6.60;93.70;;;;;;5012771;28;20642;-37
2022/03/07 13:00:16;;;;;;;9.47;5.17;;;6.70;93.50;;;;;;5012309;28;20198;-40
2022/03/07 13:02:50;;;;;;;21.93;5.67;;;6.70;93.80;;;;;;5014389;28;20209;-41